Terminal Aerodrome Forecast
Issued by NWS

Home | Current Version | Previous Version | Text Only | Print | Product List | Glossary On
Versions: 1 2 3 4 5 6 7 8 9 10 11 12 13 14 15 16 17 18 19 20 21 22 23 24 25 26 27 28 29 30 31 32
000
FTAK31 PAFA 052337
TAFAFA
TAF
PAFA 052337Z 0600/0706 VRB02KT 2SM FU SCT020 BKN100 BKN180
     FM060900 VRB02KT 1 1/2SM FU BKN020 BKN100 BKN200
     FM061800 10006KT 2SM FU SCT020 BKN100 BKN200=

USA.gov is the U.S. government's official web portal to all federal, state and local government web resources and services.